createdAt,value
2023-02-19T00:30:10.160Z,55.00
2023-02-19T00:36:38.499Z,55.00
2023-02-19T00:39:37.405Z,54.90
2023-02-19T00:42:13.457Z,55.50
2023-02-19T00:44:54.851Z,55.50
2023-02-19T01:23:22.619Z,55.20
2023-02-19T01:35:27.655Z,56.00
2023-02-19T01:38:27.644Z,56.40
2023-02-19T01:41:56.792Z,56.50
2023-02-19T01:46:37.187Z,57.00
2023-02-19T01:56:38.581Z,57.30
2023-02-19T01:59:36.655Z,56.50
2023-02-19T02:09:17.781Z,59.40
2023-02-19T02:11:53.501Z,59.60
2023-02-19T02:14:27.398Z,59.80
2023-02-19T02:17:17.373Z,58.80
2023-02-19T02:20:08.068Z,59.10
2023-02-19T02:22:57.276Z,59.50
2023-02-19T02:26:06.567Z,59.50
2023-02-19T02:29:33.723Z,58.60
2023-02-19T02:32:23.116Z,58.20
2023-02-19T02:35:24.614Z,57.80
2023-02-19T02:38:04.578Z,57.60
2023-02-19T02:40:35.353Z,57.40
2023-02-19T02:43:14.428Z,57.90
2023-02-19T02:46:33.073Z,58.10
2023-02-19T02:48:42.935Z,57.80
2023-02-19T02:51:19.958Z,58.40
2023-02-19T02:54:10.869Z,58.60
2023-02-19T02:56:43.648Z,59.70
2023-02-19T02:59:16.174Z,60.00
2023-02-19T03:02:08.288Z,60.20
2023-02-19T03:05:07.604Z,59.50
2023-02-19T03:07:44.206Z,59.10
2023-02-19T03:14:16.889Z,59.70
2023-02-19T03:17:08.068Z,60.50
2023-02-19T03:23:00.412Z,61.90
2023-02-19T03:25:55.412Z,62.00
2023-02-19T03:28:51.750Z,62.60
2023-02-19T03:32:09.632Z,63.20
2023-02-19T03:34:46.178Z,64.50
2023-02-19T03:37:32.664Z,64.80
2023-02-19T03:40:01.795Z,65.60
2023-02-19T03:42:44.744Z,65.90
2023-02-19T03:45:39.184Z,65.40
2023-02-19T03:48:28.020Z,64.70
2023-02-19T03:51:22.010Z,64.40
2023-02-19T03:54:12.445Z,64.10
2023-02-19T03:56:49.427Z,63.80
2023-02-19T03:59:26.197Z,65.10
2023-02-19T04:02:17.273Z,64.90
2023-02-19T04:05:01.595Z,64.50
2023-02-19T04:07:46.717Z,64.30
2023-02-19T04:10:40.597Z,64.40
2023-02-19T04:13:24.126Z,64.80
2023-02-19T04:16:16.497Z,65.50
2023-02-19T04:18:55.883Z,65.20
2023-02-19T04:21:30.152Z,64.90
2023-02-19T04:24:07.825Z,64.60
2023-02-19T04:26:38.050Z,63.90
2023-02-19T04:29:07.412Z,64.20
2023-02-19T04:31:38.505Z,65.10
2023-02-19T04:34:07.374Z,65.50
2023-02-19T04:36:36.233Z,65.50
2023-02-19T04:39:08.524Z,65.60
2023-02-19T04:41:37.232Z,66.20
2023-02-19T04:44:06.585Z,66.50
2023-02-19T04:46:35.342Z,66.30
2023-02-19T04:49:05.841Z,66.10
2023-02-19T04:51:34.798Z,66.10
2023-02-19T04:54:03.584Z,65.70
2023-02-19T04:56:33.855Z,64.70
2023-02-19T04:59:02.907Z,64.70
2023-02-19T05:01:31.650Z,64.60
2023-02-19T05:04:00.649Z,64.60
2023-02-19T05:06:30.899Z,63.40
2023-02-19T05:08:59.723Z,63.80
2023-02-19T05:11:29.947Z,64.10
2023-02-19T05:14:00.169Z,64.70
2023-02-19T05:16:30.582Z,64.20
2023-02-19T05:18:59.408Z,64.20
2023-02-19T05:21:28.431Z,64.40
2023-02-19T05:23:57.467Z,64.10
2023-02-19T05:26:26.843Z,64.40
2023-02-19T05:28:56.345Z,63.70
2023-02-19T05:31:28.021Z,64.10
2023-02-19T05:33:58.396Z,63.80
2023-02-19T05:36:27.593Z,64.00
2023-02-19T05:38:59.681Z,64.40
2023-02-19T05:41:31.401Z,64.50
2023-02-19T05:44:00.315Z,65.50
2023-02-19T05:46:31.628Z,64.60
2023-02-19T05:49:00.608Z,65.00
2023-02-19T05:51:30.425Z,64.70
2023-02-19T05:53:59.245Z,64.70
2023-02-19T05:56:36.077Z,64.10
2023-02-19T05:59:09.697Z,64.00
2023-02-19T06:01:39.999Z,64.80
2023-02-19T06:04:08.749Z,65.40
2023-02-19T06:06:38.298Z,65.40
2023-02-19T06:09:07.942Z,64.50
2023-02-19T06:11:37.590Z,65.30
2023-02-19T06:14:07.105Z,65.60
2023-02-19T06:16:36.034Z,65.50
2023-02-19T06:19:08.384Z,65.10
2023-02-19T06:21:37.279Z,64.60
2023-02-19T06:24:10.272Z,65.30
2023-02-19T06:26:39.773Z,65.50
2023-02-19T06:29:08.585Z,65.90
2023-02-19T06:31:37.321Z,66.10
2023-02-19T06:34:08.095Z,66.00
2023-02-19T06:36:36.725Z,66.10
2023-02-19T06:39:06.987Z,65.80
2023-02-19T06:41:35.708Z,64.00
2023-02-19T06:44:04.546Z,64.00
2023-02-19T06:46:33.279Z,64.60
2023-02-19T06:49:02.019Z,65.50
2023-02-19T06:51:33.138Z,64.20
2023-02-19T06:54:03.516Z,63.30
2023-02-19T06:56:34.802Z,63.10
2023-02-19T06:59:06.689Z,63.70
2023-02-19T07:01:37.742Z,63.30
2023-02-19T07:04:07.638Z,62.80
2023-02-19T07:06:38.893Z,62.60
2023-02-19T07:09:09.418Z,62.30
2023-02-19T07:11:41.037Z,62.20
2023-02-19T07:14:16.091Z,61.50
2023-02-19T07:16:47.448Z,61.10
2023-02-19T07:19:17.059Z,60.60
2023-02-19T07:21:47.133Z,60.70
2023-02-19T07:24:15.867Z,60.10
2023-02-19T07:26:44.655Z,59.50
2023-02-19T07:29:13.353Z,58.20
2023-02-19T07:31:42.110Z,59.00
2023-02-19T07:34:10.849Z,57.80
2023-02-19T07:36:39.512Z,57.00
2023-02-19T07:39:10.248Z,57.50
2023-02-19T07:41:39.585Z,56.80
2023-02-19T07:44:08.221Z,57.50
2023-02-19T07:46:36.961Z,57.20
2023-02-19T07:49:07.330Z,57.80
2023-02-19T07:51:36.191Z,56.70
2023-02-19T07:54:05.110Z,56.70
2023-02-19T07:56:35.530Z,55.90
2023-02-19T07:59:04.198Z,57.50
2023-02-19T08:01:50.446Z,57.90
2023-02-19T08:04:19.062Z,57.10
2023-02-19T08:06:47.766Z,56.70
2023-02-19T08:09:16.596Z,55.20
2023-02-19T08:12:04.182Z,55.30
2023-02-19T08:14:32.958Z,54.70
2023-02-19T08:17:01.695Z,54.30
2023-02-19T08:19:30.218Z,55.90
2023-02-19T08:21:58.913Z,55.60
2023-02-19T08:24:27.612Z,54.10
2023-02-19T08:26:57.921Z,53.80
2023-02-19T08:29:26.987Z,53.90
2023-02-19T08:31:59.598Z,52.20
2023-02-19T08:34:28.489Z,50.30
2023-02-19T08:36:58.673Z,50.40
2023-02-19T08:39:27.393Z,45.80
2023-02-19T08:41:59.076Z,45.50
2023-02-19T08:44:34.813Z,44.10
2023-02-19T08:47:05.150Z,42.00
2023-02-19T08:49:33.808Z,37.40
2023-02-19T08:52:02.525Z,37.70
2023-02-19T08:54:31.539Z,38.20
2023-02-19T08:57:01.723Z,37.80
2023-02-19T08:59:31.072Z,36.40
2023-02-19T09:02:01.134Z,34.70
2023-02-19T09:04:30.803Z,36.00
2023-02-19T09:06:59.817Z,36.90
2023-02-19T09:09:29.022Z,38.20
2023-02-19T09:11:58.355Z,40.80
2023-02-19T09:14:29.069Z,42.40
2023-02-19T09:16:58.275Z,42.90
2023-02-19T09:19:28.178Z,44.20
2023-02-19T09:21:58.755Z,44.70
2023-02-19T09:24:28.796Z,44.10
2023-02-19T09:26:58.197Z,44.30
2023-02-19T09:29:30.864Z,44.90
2023-02-19T09:32:01.946Z,45.50
2023-02-19T09:34:33.105Z,44.50
2023-02-19T09:37:03.880Z,45.60
2023-02-19T09:39:33.543Z,44.50
2023-02-19T09:42:14.324Z,44.90
2023-02-19T09:45:02.489Z,45.20
2023-02-19T09:47:40.259Z,45.80
2023-02-19T09:50:16.075Z,45.10
2023-02-19T09:53:03.487Z,45.30
2023-02-19T09:55:38.045Z,44.50
2023-02-19T09:58:25.895Z,44.50
2023-02-19T10:01:17.977Z,45.00
2023-02-19T10:04:29.947Z,44.10
2023-02-19T10:12:16.437Z,45.80
2023-02-19T10:14:15.613Z,44.60
2023-02-19T10:16:49.028Z,44.80
2023-02-19T10:19:30.705Z,44.80
2023-02-19T10:22:00.115Z,43.80
2023-02-19T10:24:31.741Z,43.80
2023-02-19T10:27:02.301Z,41.80
2023-02-19T10:29:32.191Z,41.40
2023-02-19T10:32:24.133Z,40.60
2023-02-19T10:35:13.969Z,41.30
2023-02-19T10:37:48.541Z,39.00
2023-02-19T10:40:20.910Z,40.00
2023-02-19T10:42:55.338Z,41.90
2023-02-19T10:45:31.002Z,41.20
2023-02-19T10:48:00.874Z,40.00
2023-02-19T10:50:34.071Z,39.10
2023-02-19T10:53:03.052Z,37.20
2023-02-19T10:55:37.839Z,38.50
2023-02-19T10:58:28.612Z,36.40
2023-02-19T11:01:15.831Z,35.30
2023-02-19T11:03:45.588Z,35.10
2023-02-19T11:06:16.845Z,35.20
2023-02-19T11:08:54.068Z,35.00
2023-02-19T11:11:36.042Z,33.90
2023-02-19T11:14:17.877Z,34.30
2023-02-19T11:16:52.106Z,32.60
2023-02-19T11:19:28.129Z,33.10
2023-02-19T11:21:57.330Z,33.40
2023-02-19T11:24:35.366Z,32.20
2023-02-19T11:27:07.773Z,32.10
2023-02-19T11:29:37.839Z,33.70
2023-02-19T11:32:27.430Z,33.60
2023-02-19T11:35:17.863Z,33.20
2023-02-19T11:37:58.773Z,32.00
2023-02-19T11:40:42.051Z,33.70
2023-02-19T11:43:36.888Z,31.70
2023-02-19T11:46:16.840Z,31.90
2023-02-19T11:48:56.002Z,32.60
2023-02-19T11:51:51.439Z,33.10
2023-02-19T11:54:45.735Z,33.40
2023-02-19T11:57:38.666Z,32.60
2023-02-19T12:00:29.628Z,33.50
2023-02-19T12:03:51.252Z,32.90
2023-02-19T12:06:31.619Z,32.30
2023-02-19T12:09:20.438Z,32.40
2023-02-19T12:12:08.857Z,33.00
2023-02-19T12:15:30.818Z,31.90
2023-02-19T12:18:55.491Z,34.80
2023-02-19T12:21:43.570Z,36.50
2023-02-19T12:24:55.289Z,37.50
2023-02-19T12:27:41.593Z,40.80
2023-02-19T12:30:42.007Z,44.60
2023-02-19T12:34:01.931Z,46.80
2023-02-19T12:36:43.240Z,47.10
2023-02-19T12:39:24.725Z,45.60
2023-02-19T12:42:04.186Z,46.10
2023-02-19T12:44:44.104Z,44.60
2023-02-19T12:47:23.025Z,43.50
2023-02-19T12:50:05.438Z,41.00
2023-02-19T12:52:42.501Z,39.30
2023-02-19T12:55:23.899Z,37.40
2023-02-19T12:57:55.005Z,33.90
2023-02-19T13:00:36.964Z,35.00
2023-02-19T13:03:21.031Z,34.30
2023-02-19T13:05:58.717Z,35.60
2023-02-19T13:08:36.580Z,35.20
2023-02-19T13:11:15.782Z,37.50
2023-02-19T13:13:52.162Z,37.00
2023-02-19T13:16:23.473Z,36.40
2023-02-19T13:18:57.095Z,37.50
2023-02-19T13:21:49.801Z,36.30
2023-02-19T13:24:28.307Z,32.80
2023-02-19T13:27:36.781Z,33.70
2023-02-19T13:30:29.170Z,32.00
2023-02-19T13:33:08.505Z,29.10
2023-02-19T13:36:15.464Z,28.70
2023-02-19T13:38:47.336Z,30.40
2023-02-19T13:41:28.626Z,31.30
2023-02-19T13:44:02.938Z,30.30
2023-02-19T13:46:40.283Z,31.20
2023-02-19T13:49:43.315Z,31.00
2023-02-19T13:52:41.784Z,30.30
2023-02-19T13:55:49.867Z,31.90
2023-02-19T13:59:01.615Z,29.60
2023-02-19T14:02:27.175Z,31.30
2023-02-19T14:05:00.250Z,30.90
2023-02-19T14:07:55.139Z,30.90
2023-02-19T14:10:53.977Z,30.00
2023-02-19T14:14:28.228Z,32.20
2023-02-19T14:17:07.645Z,33.60
2023-02-19T14:19:55.489Z,34.00
2023-02-19T14:23:17.120Z,34.80
2023-02-19T14:25:55.989Z,36.00
2023-02-19T14:28:31.070Z,35.50
2023-02-19T14:31:10.666Z,34.80
2023-02-19T14:33:44.837Z,35.10
2023-02-19T14:36:32.668Z,35.60
2023-02-19T14:39:05.099Z,35.60
2023-02-19T14:41:40.191Z,36.10
2023-02-19T14:44:17.916Z,36.60
2023-02-19T14:46:57.944Z,36.70
2023-02-19T14:49:36.038Z,37.20
2023-02-19T14:52:09.481Z,37.20
2023-02-19T14:54:44.092Z,37.30
2023-02-19T14:57:19.618Z,38.50
2023-02-19T14:59:58.396Z,37.00
2023-02-19T15:02:29.967Z,37.00
2023-02-19T15:04:59.290Z,37.30
2023-02-19T15:07:34.595Z,37.40
2023-02-19T15:10:06.644Z,37.70
2023-02-19T15:12:46.417Z,38.30
2023-02-19T15:15:23.444Z,39.10
2023-02-19T15:17:56.935Z,40.70
2023-02-19T15:20:32.006Z,41.40
2023-02-19T15:23:03.231Z,43.00
2023-02-19T15:25:37.399Z,44.80
2023-02-19T15:28:26.769Z,44.90
2023-02-19T15:31:08.642Z,45.50
2023-02-19T15:33:39.593Z,45.00
2023-02-19T15:36:11.786Z,44.90
2023-02-19T15:38:41.447Z,44.40
2023-02-19T15:41:24.718Z,43.80
2023-02-19T15:44:03.366Z,44.20
2023-02-19T15:46:32.426Z,44.20
2023-02-19T15:49:08.970Z,44.30
2023-02-19T15:51:47.363Z,44.10
2023-02-19T15:54:27.162Z,42.40
2023-02-19T15:57:01.873Z,41.80
2023-02-19T15:59:37.035Z,41.70
2023-02-19T16:02:06.354Z,42.00
2023-02-19T16:04:38.370Z,41.90
2023-02-19T16:07:07.614Z,41.80
2023-02-19T16:09:40.130Z,41.60
2023-02-19T16:12:23.732Z,41.30
2023-02-19T16:14:54.226Z,41.20
2023-02-19T16:17:29.489Z,40.70
2023-02-19T16:20:08.918Z,39.60
2023-02-19T16:23:00.204Z,40.30
2023-02-19T16:25:40.937Z,41.30
2023-02-19T16:28:21.020Z,41.70
2023-02-19T16:31:01.075Z,41.20
2023-02-19T16:33:46.923Z,41.60
2023-02-19T16:36:37.911Z,41.00
2023-02-19T16:39:35.159Z,40.50
2023-02-19T16:42:16.020Z,40.60
2023-02-19T16:44:46.065Z,40.10
2023-02-19T16:47:34.211Z,39.70
2023-02-19T16:50:16.069Z,39.80
2023-02-19T16:52:58.160Z,38.50
2023-02-19T16:55:27.757Z,38.70
2023-02-19T16:57:56.714Z,38.30
2023-02-19T17:00:27.844Z,38.00
2023-02-19T17:03:09.353Z,39.10
2023-02-19T17:05:40.212Z,38.80
2023-02-19T17:08:42.445Z,38.80
2023-02-19T17:11:16.634Z,38.50
2023-02-19T17:13:47.088Z,38.70
2023-02-19T17:16:22.841Z,39.00
2023-02-19T17:18:52.718Z,38.90
2023-02-19T17:21:24.373Z,38.30
2023-02-19T17:23:55.900Z,37.90
2023-02-19T17:26:27.910Z,37.50
2023-02-19T17:28:58.491Z,37.30
2023-02-19T17:31:29.292Z,37.00
2023-02-19T17:33:59.080Z,36.40
2023-02-19T17:36:31.140Z,36.10
2023-02-19T17:39:03.228Z,35.90
2023-02-19T17:41:32.100Z,36.00
2023-02-19T17:44:00.781Z,35.70
2023-02-19T17:46:29.464Z,35.10
2023-02-19T17:48:59.471Z,35.50
2023-02-19T17:51:28.549Z,36.00
2023-02-19T17:53:57.378Z,35.90
2023-02-19T17:56:31.219Z,35.80
2023-02-19T18:01:56.003Z,36.00
2023-02-19T18:04:27.313Z,36.10
2023-02-19T18:06:56.951Z,36.10
2023-02-19T18:09:27.048Z,36.20
2023-02-19T18:11:58.937Z,36.80
2023-02-19T18:14:28.519Z,36.60
2023-02-19T18:16:58.289Z,36.70
2023-02-19T18:19:27.199Z,36.70
2023-02-19T18:21:55.756Z,36.80
2023-02-19T18:24:24.497Z,36.90
2023-02-19T18:26:53.592Z,36.80
2023-02-19T18:29:26.109Z,37.10
2023-02-19T18:31:54.912Z,37.50
2023-02-19T18:34:23.858Z,37.90
2023-02-19T18:36:52.927Z,37.90
2023-02-19T18:39:21.654Z,37.80
2023-02-19T18:41:52.028Z,38.10
2023-02-19T18:44:24.085Z,38.50
2023-02-19T18:46:53.708Z,38.90
2023-02-19T18:49:22.286Z,39.30
2023-02-19T18:51:51.407Z,39.90
2023-02-19T18:54:25.194Z,40.00
2023-02-19T18:56:53.856Z,40.40
2023-02-19T18:59:25.045Z,40.50
2023-02-19T19:02:07.923Z,41.00
2023-02-19T19:04:50.111Z,41.30
2023-02-19T19:07:20.615Z,41.40
2023-02-19T19:09:49.911Z,40.80
2023-02-19T19:12:18.754Z,41.40
2023-02-19T19:14:49.187Z,41.70
2023-02-19T19:17:19.818Z,41.10
2023-02-19T19:19:50.715Z,40.50
2023-02-19T19:22:22.965Z,41.10
2023-02-19T19:24:51.713Z,41.50
2023-02-19T19:27:20.930Z,41.30
2023-02-19T19:29:52.128Z,41.50
2023-02-19T19:32:42.012Z,41.60
2023-02-19T19:35:12.947Z,41.40
2023-02-19T19:37:41.632Z,40.80
2023-02-19T19:40:13.412Z,40.50
2023-02-19T19:42:43.610Z,39.90
2023-02-19T19:45:15.557Z,39.60
2023-02-19T19:47:44.763Z,39.90
2023-02-19T19:50:14.590Z,39.80
2023-02-19T19:52:43.745Z,39.90
2023-02-19T19:55:12.708Z,39.80
2023-02-19T19:57:43.565Z,39.60
2023-02-19T20:00:18.365Z,40.30
2023-02-19T20:02:47.753Z,41.30
2023-02-19T20:05:17.272Z,40.60
2023-02-19T20:08:15.067Z,40.40
2023-02-19T20:10:55.793Z,40.90
2023-02-19T20:13:27.848Z,42.00
2023-02-19T20:16:00.519Z,42.30
2023-02-19T20:18:39.863Z,42.00
2023-02-19T20:21:11.199Z,41.60
2023-02-19T20:23:40.902Z,42.00
2023-02-19T20:26:09.863Z,41.40
2023-02-19T20:28:45.323Z,41.80
2023-02-19T20:31:18.022Z,42.20
2023-02-19T20:33:47.916Z,42.40
2023-02-19T20:36:17.081Z,42.20
2023-02-19T20:38:47.441Z,41.90
2023-02-19T20:41:22.463Z,41.20
2023-02-19T20:43:51.655Z,41.50
2023-02-19T20:46:21.933Z,41.70
2023-02-19T20:48:52.800Z,41.10
2023-02-19T20:51:21.523Z,41.00
2023-02-19T20:53:53.564Z,40.60
2023-02-19T20:56:32.574Z,39.90
2023-02-19T20:59:03.359Z,39.60
2023-02-19T21:01:33.648Z,39.00
2023-02-19T21:04:05.647Z,39.20
2023-02-19T21:06:35.724Z,39.30
2023-02-19T21:09:05.957Z,39.20
2023-02-19T21:11:38.113Z,39.60
2023-02-19T21:14:09.153Z,39.50
2023-02-19T21:16:45.652Z,40.50
2023-02-19T21:19:15.821Z,41.20
2023-02-19T21:21:44.634Z,41.20
2023-02-19T21:24:15.562Z,41.20
2023-02-19T21:26:45.865Z,40.90
2023-02-19T21:29:27.553Z,39.80
2023-02-19T21:32:01.153Z,40.10
2023-02-19T21:34:31.504Z,40.30
2023-02-19T21:37:00.301Z,40.50
2023-02-19T21:39:32.718Z,40.80
2023-02-19T21:42:01.859Z,40.10
2023-02-19T21:44:30.647Z,40.20
2023-02-19T21:47:00.784Z,39.80
2023-02-19T21:49:29.813Z,39.60
2023-02-19T21:52:00.010Z,39.90
2023-02-19T21:54:30.633Z,39.60
2023-02-19T21:57:03.684Z,39.40
2023-02-19T21:59:46.985Z,39.70
2023-02-19T22:02:19.935Z,39.60
2023-02-19T22:05:03.356Z,39.50
2023-02-19T22:07:33.505Z,40.00
2023-02-19T22:10:06.613Z,39.80
2023-02-19T22:12:40.006Z,40.20
2023-02-19T22:15:09.521Z,40.40
2023-02-19T22:17:42.174Z,40.60
2023-02-19T22:20:27.922Z,41.30
2023-02-19T22:23:06.383Z,41.00
2023-02-19T22:25:38.748Z,41.40
2023-02-19T22:28:10.788Z,41.80
2023-02-19T22:37:27.861Z,42.00
2023-02-19T22:40:18.677Z,41.60
2023-02-19T22:42:30.237Z,41.70
2023-02-19T22:45:00.524Z,41.20
2023-02-19T22:47:29.226Z,40.60
2023-02-19T22:50:05.322Z,40.60
2023-02-19T22:52:34.323Z,40.60
2023-02-19T22:55:03.950Z,40.60
2023-02-19T22:57:32.716Z,40.70
2023-02-19T23:00:01.420Z,41.10
2023-02-19T23:02:30.199Z,41.00
2023-02-19T23:05:00.480Z,40.70
2023-02-19T23:07:29.136Z,40.80
2023-02-19T23:09:57.833Z,40.50
2023-02-19T23:12:26.837Z,40.00
2023-02-19T23:14:56.474Z,39.50
2023-02-19T23:17:25.350Z,39.60
2023-02-19T23:20:09.384Z,39.40
2023-02-19T23:23:19.305Z,39.40
2023-02-19T23:26:04.608Z,39.00
2023-02-19T23:28:35.484Z,39.20
2023-02-19T23:31:04.468Z,39.20
2023-02-19T23:33:39.757Z,38.80
2023-02-19T23:36:15.185Z,38.60
2023-02-19T23:38:58.874Z,38.40
2023-02-19T23:41:33.513Z,38.50
2023-02-19T23:44:04.201Z,38.10
2023-02-19T23:46:48.121Z,38.50
2023-02-19T23:49:21.511Z,38.80
2023-02-19T23:51:51.893Z,38.90
2023-02-19T23:55:11.430Z,39.20
2023-02-19T23:57:30.796Z,38.80
